Flight Track Log - Related Links

Times and Time Zones

All times are in EST time to prevent confusion due to time zone crossing. See the UAL4401 flight status page for this flight to view local times or setup timezone preferences in your user account.


Time Position Orientation Groundspeed Altitude Reporting Facility
EST Latitude Longitude Course Direction KTS MPH feet Rate Location/Type
Sun 08:36:50 PM 29.9592 -95.3392 131° Southeast 152 175 700  Level Houston Center
Sun 08:37:39 PM 29.9328 -95.3036 131° Southeast 183 211 2,100 1,714 Climbing Houston Center
Sun 08:38:07 PM 29.9247 -95.2800 111° Southeast 195 224 2,900 1,527 Climbing Houston Center
Sun 08:38:34 PM 29.9231 -95.2422 93° East 242 278 3,500 1,548 Climbing Houston Center
Sun 08:39:09 PM 29.9206 -95.2011 94° East 238 274 4,500 2,262 Climbing Houston Center
Sun 08:39:35 PM 29.9172 -95.1561 95° East 272 313 5,800 2,129 Climbing Houston Center
Sun 08:40:11 PM 29.9144 -95.1133 94° East 263 303 6,700 1,970 Climbing Houston Center
Sun 08:40:42 PM 29.9117 -95.0531 93° East 288 331 8,000 2,032 Climbing Houston Center
Sun 08:41:13 PM 29.9086 -95.0197 96° East 284 327 8,800 2,066 Climbing Houston Center
Sun 08:41:43 PM 29.9050 -94.9600 94° East 299 344 10,100 1,742 Climbing Houston Center
Sun 08:42:15 PM 29.9028 -94.9219 94° East 301 346 10,600 710 Climbing Houston Center
Sun 08:43:16 PM 29.8958 -94.8111 94° East 340 391 11,200 976 Climbing Houston Center
Sun 08:44:18 PM 29.8875 -94.6897 94° East 371 427 12,600 1,536 Climbing Houston Center
Sun 08:45:21 PM 29.8786 -94.5433 94° East 380 437 14,400 1,452 Climbing Houston Center
Sun 08:46:22 PM 29.8942 -94.4189 82° East 394 453 15,600 1,073 Climbing Houston Center
Sun 08:47:24 PM 29.9133 -94.2947 80° East 395 455 16,600 871 Climbing Houston Center
Sun 08:48:26 PM 29.9342 -94.1750 79° East 400 460 17,400 927 Climbing Houston Center
Sun 08:49:27 PM 29.9536 -94.0458 80° East 407 468 18,500 1,317 Climbing Houston Center
Sun 08:50:29 PM 29.9781 -93.8944 79° East 405 466 20,100 1,355 Climbing Houston Center
Sun 08:51:31 PM 29.9978 -93.7672 80° East 405 466 21,300 1,104 Climbing Houston Center
Sun 08:52:34 PM 30.0172 -93.6414 80° East 403 464 22,400 1,122 Climbing Houston Center
Sun 08:53:34 PM 30.0364 -93.5150 80° East 405 466 23,600 1,095 Climbing Houston Center
Sun 08:54:40 PM 30.0558 -93.3886 80° East 407 468 24,700 1,161 Climbing Houston Center
Sun 08:55:38 PM 30.0789 -93.2356 80° East 409 471 26,000 1,160 Climbing Houston Center
Sun 08:56:39 PM 30.0994 -93.1081 79° East 409 471 27,000 976 Climbing Houston Center
Sun 08:57:41 PM 30.1183 -92.9761 81° East 418 481 28,000 968 Climbing Houston Center
Sun 08:58:43 PM 30.1386 -92.8442 80° East 420 483 29,000 927 Climbing Houston Center
Sun 08:59:44 PM 30.1583 -92.7122 80° East 420 483 29,900 927 Climbing Houston Center
Sun 09:00:46 PM 30.1778 -92.5775 80° East 424 488 30,900 976 Climbing Houston Center
Sun 09:01:47 PM 30.1969 -92.4444 81° East 423 487 31,900 1,073 Climbing Houston Center
Sun 09:02:49 PM 30.2208 -92.2867 80° East 425 489 33,100 1,065 Climbing Houston Center
Sun 09:03:51 PM 30.2464 -92.1553 77° East 422 486 34,100 927 Climbing Houston Center
Sun 09:04:52 PM 30.2783 -92.0261 74° East 421 484 35,000 439 Climbing Houston Center
Sun 09:05:54 PM 30.3114 -91.8961 74° East 422 486 35,000  Level Houston Center
Sun 09:06:55 PM 30.3464 -91.7575 74° East 440 506 35,000  Level Houston Center
Sun 09:07:57 PM 30.3836 -91.6122 73° East 460 529 35,000  Level Houston Center
Sun 09:08:58 PM 30.4256 -91.4314 75° East 482 555 35,000  Level Houston Center
Sun 09:10:00 PM 30.4644 -91.2767 74° East 498 573 35,000  Level Houston Center
Sun 09:11:01 PM 30.5039 -91.1192 74° East 507 583 35,000  Level Houston Center
Sun 09:12:03 PM 30.5422 -90.9611 74° East 509 586 35,000  Level Houston Center
Sun 09:13:04 PM 30.5814 -90.8033 74° East 509 586 35,000  Level Houston Center
Sun 09:14:06 PM 30.6178 -90.6442 75° East 508 585 35,000  Level Houston Center
Sun 09:15:07 PM 30.6558 -90.4844 74° East 510 587 35,000  Level Houston Center
Sun 09:16:09 PM 30.6942 -90.3253 74° East 510 587 35,000  Level Houston Center
Sun 09:17:10 PM 30.7319 -90.1650 75° East 512 589 35,000  Level Houston Center
Sun 09:18:11 PM 30.7867 -90.0111 67° East 510 587 35,000  Level Houston Center
Sun 09:19:13 PM 30.8611 -89.8319 64° Northeast 509 586 35,000  Level Houston Center
Sun 09:20:14 PM 30.9225 -89.6806 65° Northeast 513 590 35,000 -49 Level Houston Center
Sun 09:21:16 PM 30.9833 -89.5303 65° Northeast 511 588 34,900  Descending Houston Center
Sun 09:22:17 PM 31.0442 -89.3797 65° Northeast 512 589 35,000 49 Climbing Houston Center
Sun 09:23:19 PM 31.1053 -89.2281 65° Northeast 514 592 35,000  Level Houston Center
Sun 09:24:20 PM 31.1639 -89.0739 66° East 518 596 35,000  Level Houston Center
Sun 09:25:21 PM 31.2250 -88.9233 65° Northeast 512 589 35,000  Level Houston Center
Sun 09:26:23 PM 31.2853 -88.7725 65° Northeast 511 588 35,000  Level Houston Center
Sun 09:27:24 PM 31.3456 -88.6186 65° Northeast 516 594 35,000  Level Houston Center
Sun 09:28:25 PM 31.4053 -88.4667 65° Northeast 511 588 35,000  Level Houston Center
Sun 09:29:27 PM 31.4658 -88.3114 65° Northeast 517 595 35,000  Level Houston Center
Sun 09:30:28 PM 31.5256 -88.1575 65° Northeast 515 593 35,000  Level Houston Center
Sun 09:31:29 PM 31.5978 -87.9731 65° Northeast 515 593 35,000  Level Houston Center
Sun 09:32:31 PM 31.6572 -87.8189 66° East 516 594 35,000  Level Houston Center
Sun 09:33:32 PM 31.7158 -87.6639 66° East 518 596 35,000  Level Houston Center
Sun 09:34:33 PM 31.7753 -87.5078 66° East 521 600 35,000  Level Houston Center
Sun 09:35:35 PM 31.8344 -87.3522 66° East 522 601 35,000  Level Houston Center
Sun 09:36:36 PM 31.8944 -87.1953 66° East 525 604 35,000  Level Houston Center
Sun 09:37:37 PM 31.9525 -87.0383 66° East 524 603 35,000  Level Houston Center
Sun 09:38:35 PM 32.0122 -86.8900 65° Northeast 517 595 35,000  Level Atlanta Center
Sun 09:39:35 PM 32.0700 -86.7325 67° East 517 595 35,000  Level Atlanta Center
Sun 09:40:35 PM 32.1403 -86.5603 64° Northeast 517 595 35,000  Level Atlanta Center
Sun 09:41:35 PM 32.1978 -86.4000 67° East 517 595 35,000  Level Atlanta Center
Sun 09:42:35 PM 32.2589 -86.2667 62° Northeast 512 589 35,000  Level Atlanta Center
Sun 09:43:35 PM 32.3489 -86.1336 51° Northeast 518 596 35,000  Level Atlanta Center
Sun 09:44:35 PM 32.4386 -85.9978 52° Northeast 518 596 35,000  Level Atlanta Center
Sun 09:45:35 PM 32.5411 -85.8475 51° Northeast 518 596 35,000  Level Atlanta Center
Sun 09:46:35 PM 32.6328 -85.7111 51° Northeast 525 604 35,000  Level Atlanta Center
Sun 09:47:35 PM 32.7222 -85.5769 52° Northeast 525 604 35,000  Level Atlanta Center
Sun 09:48:35 PM 32.8094 -85.4378 53° Northeast 525 604 35,000  Level Atlanta Center
Sun 09:49:35 PM 32.9006 -85.3081 50° Northeast 525 604 35,000  Level Atlanta Center
Sun 09:50:35 PM 32.9897 -85.1706 52° Northeast 525 604 35,000  Level Atlanta Center
Sun 09:51:35 PM 33.0719 -85.0553 50° Northeast 519 597 35,000  Level Atlanta Center
Sun 09:52:35 PM 33.1608 -84.9172 52° Northeast 513 590 35,000  Level Atlanta Center
Sun 09:53:35 PM 33.2494 -84.7792 52° Northeast 513 590 35,000  Level Atlanta Center
Sun 09:54:35 PM 33.3397 -84.6381 53° Northeast 522 601 35,000  Level Atlanta Center
Sun 09:55:35 PM 33.4303 -84.5017 51° Northeast 522 601 35,000  Level Atlanta Center
Sun 09:56:35 PM 33.5183 -84.3603 53° Northeast 527 606 35,000  Level Atlanta Center
Sun 09:57:35 PM 33.6083 -84.2208 52° Northeast 527 606 35,000  Level Atlanta Center
Sun 09:58:35 PM 33.6983 -84.0789 53° Northeast 527 606 35,000  Level Atlanta Center
Sun 09:59:35 PM 33.7881 -83.9389 52° Northeast 527 606 35,000  Level Atlanta Center
Sun 10:00:35 PM 33.8775 -83.7961 53° Northeast 527 606 35,000  Level Atlanta Center
Sun 10:01:35 PM 33.9647 -83.6581 53° Northeast 527 606 35,000  Level Atlanta Center
Sun 10:02:35 PM 34.0539 -83.5122 54° Northeast 527 606 35,000  Level Atlanta Center
Sun 10:03:35 PM 34.1514 -83.3611 52° Northeast 527 606 35,000  Level Atlanta Center
Sun 10:04:35 PM 34.2403 -83.2172 53° Northeast 536 617 35,000  Level Atlanta Center
Sun 10:05:35 PM 34.3269 -83.0728 54° Northeast 531 611 35,000  Level Atlanta Center
Sun 10:06:35 PM 34.4153 -82.9308 53° Northeast 531 611 35,000  Level Atlanta Center
Sun 10:07:35 PM 34.5208 -82.8161 42° Northeast 517 595 35,000  Level Atlanta Center
Sun 10:08:35 PM 34.6344 -82.7083 38° Northeast 509 586 35,000  Level Atlanta Center
Sun 10:09:35 PM 34.7228 -82.5983 46° Northeast 503 579 35,000  Level Atlanta Center
Sun 10:10:35 PM 34.8044 -82.4528 56° Northeast 498 573 35,000  Level Atlanta Center
Sun 10:11:35 PM 34.8817 -82.3019 58° Northeast 513 590 35,000  Level Atlanta Center
Sun 10:12:35 PM 34.9589 -82.1506 58° Northeast 519 597 35,000  Level Atlanta Center
Sun 10:13:35 PM 35.0358 -82.0069 57° Northeast 519 597 35,000  Level Atlanta Center
Sun 10:14:35 PM 35.1083 -81.8528 60° Northeast 519 597 35,000  Level Atlanta Center
Sun 10:15:35 PM 35.1850 -81.7058 57° Northeast 509 586 35,000  Level Atlanta Center
Sun 10:16:35 PM 35.2592 -81.5614 58° Northeast 509 586 35,000  Level Atlanta Center
Sun 10:17:35 PM 35.3442 -81.4264 52° Northeast 497 572 35,000  Level Atlanta Center
Sun 10:18:35 PM 35.4289 -81.2911 52° Northeast 492 566 35,000  Level Atlanta Center
Sun 10:19:35 PM 35.5211 -81.1325 54° Northeast 508 585 35,000  Level Atlanta Center
Sun 10:20:35 PM 35.6075 -80.9992 51° Northeast 508 585 35,000  Level Atlanta Center
Sun 10:21:35 PM 35.6939 -80.8656 51° Northeast 503 579 35,000  Level Atlanta Center
Sun 10:22:35 PM 35.7700 -80.7475 52° Northeast 494 568 35,000  Level Atlanta Center
Sun 10:23:35 PM 35.8581 -80.6081 52° Northeast 500 575 35,000  Level Atlanta Center
Sun 10:24:35 PM 35.9458 -80.4658 53° Northeast 505 581 35,000  Level Atlanta Center
Sun 10:25:35 PM 36.0314 -80.3258 53° Northeast 505 581 35,000 -714 Level Atlanta Center
Sun 10:27:23 PM 36.1864 -80.0828 52° Northeast 506 582 33,000 -706 Descending Washington Center
Sun 10:28:25 PM 36.2731 -79.9461 52° Northeast 506 582 33,000  Level Washington Center
Sun 10:29:23 PM 36.3572 -79.8064 53° Northeast 506 582 33,000  Level Washington Center
Sun 10:30:25 PM 36.4414 -79.6664 53° Northeast 506 582 33,000  Level Washington Center
Sun 10:31:25 PM 36.5256 -79.5233 54° Northeast 512 589 33,000 -102 Level Washington Center
Sun 10:32:23 PM 36.6094 -79.3828 53° Northeast 512 589 32,800 -650 Descending Washington Center
Sun 10:33:25 PM 36.7039 -79.2292 52° Northeast 512 589 31,700 -1,450 Descending Washington Center
Sun 10:34:23 PM 36.7894 -79.0856 53° Northeast 512 589 29,900 -1,866 Descending Washington Center
Sun 10:35:24 PM 36.8750 -78.9439 53° Northeast 512 589 28,000 -1,900 Descending Washington Center
Sun 10:36:23 PM 36.9622 -78.7994 53° Northeast 512 589 26,100 -1,488 Descending Washington Center
Sun 10:37:25 PM 37.0386 -78.6700 53° Northeast 512 589 25,000 -541 Descending Washington Center
Sun 10:38:25 PM 37.1236 -78.5275 53° Northeast 512 589 25,000  Level Washington Center
Sun 10:39:23 PM 37.2042 -78.3872 54° Northeast 512 589 25,000  Level Washington Center
Sun 10:40:23 PM 37.3136 -78.2503 45° Northeast 512 589 25,000  Level Washington Center
Sun 10:41:25 PM 37.4117 -78.1594 36° Northeast 490 564 25,000  Level Washington Center
Sun 10:42:25 PM 37.5200 -78.0583 37° Northeast 490 564 25,000 -1,008 Level Washington Center
Sun 10:43:24 PM 37.6306 -77.9569 36° Northeast 490 564 23,000 -2,269 Descending Washington Center
Sun 10:44:24 PM 37.7389 -77.8581 36° Northeast 484 557 20,500 -2,579 Descending Washington Center
Sun 10:45:25 PM 37.8386 -77.7664 36° Northeast 464 534 17,800 -2,579 Descending Washington Center
Sun 10:46:25 PM 37.9361 -77.6744 37° Northeast 446 513 15,300 -2,644 Descending Washington Center
Sun 10:47:23 PM 38.0400 -77.5822 35° Northeast 434 499 12,600 -2,521 Descending Washington Center
Sun 10:48:24 PM 38.1311 -77.4950 37° Northeast 421 484 10,300 -1,574 Descending Washington Center
Sun 10:49:25 PM 38.2133 -77.4283 32° Northeast 383 441 9,400 -1,322 Descending Washington Center
Sun 10:50:22 PM 38.2956 -77.3803 25° Northeast 340 391 7,700 -1,576 Descending Washington Center
Sun 10:51:23 PM 38.3792 -77.3556 13° North 304 350 6,300 -1,339 Descending Washington Center
Sun 10:52:23 PM 38.4647 -77.3603 358° North 304 350 5,000 -689 Descending Washington Center
Sun 10:53:25 PM 38.5458 -77.3650 357° North 292 336 4,900 -250 Descending Washington Center
Sun 10:54:23 PM 38.6292 -77.3669 359° North 292 336 4,500 -458 Descending Washington Center
Sun 10:55:23 PM 38.7128 -77.3636 North 292 336 4,000 -248 Descending Washington Center
Sun 10:56:24 PM 38.7983 -77.3603 North 292 336 4,000  Level Washington Center
Sun 10:57:44 PM 38.9167 -77.3500 North 305 351 4,000  Level Potomac TRACON
Sun 10:58:44 PM 39.0000 -77.3500 360° North 309 356 4,000 -450 Level Potomac TRACON
Sun 10:59:44 PM 39.0833 -77.3500 360° North 305 351 3,100 -800 Descending Potomac TRACON
Sun 11:00:44 PM 39.1500 -77.3667 349° North 282 325 2,400 -550 Descending Potomac TRACON
Sun 11:01:44 PM 39.1333 -77.4167 247° West 189 217 2,000 -200 Descending Potomac TRACON
Sun 11:02:44 PM 39.0833 -77.4333 195° South 183 211 2,000 -100 Level Potomac TRACON
Sun 11:03:44 PM 39.0333 -77.4333 180° South 177 204 1,800 -381 Descending Potomac TRACON
Sun 11:04:50 PM 39.0000 -77.4333 180° South 134 154 1,200 -545 Descending Potomac TRACON

Login

Don't have an account? Register now (free) for customized features, flight alerts, and more!